sensor_id;sensor_type;location;lat;lon;timestamp;P1;durP1;ratioP1;P2;durP2;ratioP2
76107;SDS011;64834;52.516;10.528;2023-10-31T00:00:18;7.18;;;4.25;;
76107;SDS011;64834;52.516;10.528;2023-10-31T00:02:43;8.07;;;4.22;;
76107;SDS011;64834;52.516;10.528;2023-10-31T00:05:09;7.90;;;4.68;;
76107;SDS011;64834;52.516;10.528;2023-10-31T00:07:34;13.32;;;4.68;;
76107;SDS011;64834;52.516;10.528;2023-10-31T00:09:59;7.63;;;4.43;;
76107;SDS011;64834;52.516;10.528;2023-10-31T00:12:25;6.95;;;4.20;;
76107;SDS011;64834;52.516;10.528;2023-10-31T00:14:51;6.78;;;3.80;;
76107;SDS011;64834;52.516;10.528;2023-10-31T00:17:16;7.57;;;4.38;;
76107;SDS011;64834;52.516;10.528;2023-10-31T00:19:41;8.23;;;4.13;;
76107;SDS011;64834;52.516;10.528;2023-10-31T00:22:07;9.27;;;4.68;;
76107;SDS011;64834;52.516;10.528;2023-10-31T00:24:32;7.57;;;4.38;;
76107;SDS011;64834;52.516;10.528;2023-10-31T00:26:58;9.75;;;4.50;;
76107;SDS011;64834;52.516;10.528;2023-10-31T00:29:23;7.22;;;4.30;;
76107;SDS011;64834;52.516;10.528;2023-10-31T00:31:49;7.95;;;4.30;;
76107;SDS011;64834;52.516;10.528;2023-10-31T00:34:14;6.78;;;3.85;;
76107;SDS011;64834;52.516;10.528;2023-10-31T00:36:40;6.75;;;3.85;;
76107;SDS011;64834;52.516;10.528;2023-10-31T00:39:05;7.78;;;3.67;;
76107;SDS011;64834;52.516;10.528;2023-10-31T00:41:30;7.20;;;3.70;;
76107;SDS011;64834;52.516;10.528;2023-10-31T00:43:55;11.55;;;4.38;;
76107;SDS011;64834;52.516;10.528;2023-10-31T00:46:21;7.07;;;4.38;;
76107;SDS011;64834;52.516;10.528;2023-10-31T00:48:46;7.63;;;3.83;;
76107;SDS011;64834;52.516;10.528;2023-10-31T00:51:12;7.43;;;4.32;;
76107;SDS011;64834;52.516;10.528;2023-10-31T00:53:37;8.73;;;4.22;;
76107;SDS011;64834;52.516;10.528;2023-10-31T00:56:02;10.45;;;4.22;;
76107;SDS011;64834;52.516;10.528;2023-10-31T00:58:28;6.97;;;4.10;;
76107;SDS011;64834;52.516;10.528;2023-10-31T01:00:53;8.40;;;4.22;;
76107;SDS011;64834;52.516;10.528;2023-10-31T01:03:18;6.00;;;3.67;;
76107;SDS011;64834;52.516;10.528;2023-10-31T01:05:44;8.35;;;4.38;;
76107;SDS011;64834;52.516;10.528;2023-10-31T01:08:09;8.13;;;3.83;;
76107;SDS011;64834;52.516;10.528;2023-10-31T01:10:34;9.63;;;3.85;;
76107;SDS011;64834;52.516;10.528;2023-10-31T01:13:00;6.75;;;3.85;;
76107;SDS011;64834;52.516;10.528;2023-10-31T01:15:25;7.70;;;3.97;;
76107;SDS011;64834;52.516;10.528;2023-10-31T01:17:50;6.97;;;3.85;;
76107;SDS011;64834;52.516;10.528;2023-10-31T01:20:16;5.05;;;3.42;;
76107;SDS011;64834;52.516;10.528;2023-10-31T01:22:41;7.80;;;3.60;;
76107;SDS011;64834;52.516;10.528;2023-10-31T01:25:06;6.70;;;3.15;;
76107;SDS011;64834;52.516;10.528;2023-10-31T01:27:32;4.82;;;3.10;;
76107;SDS011;64834;52.516;10.528;2023-10-31T01:29:57;7.05;;;3.17;;
76107;SDS011;64834;52.516;10.528;2023-10-31T01:32:23;5.57;;;3.10;;
76107;SDS011;64834;52.516;10.528;2023-10-31T01:34:48;4.82;;;2.85;;
76107;SDS011;64834;52.516;10.528;2023-10-31T01:37:13;5.10;;;2.42;;
76107;SDS011;64834;52.516;10.528;2023-10-31T01:39:39;4.40;;;2.72;;
76107;SDS011;64834;52.516;10.528;2023-10-31T01:42:05;5.80;;;2.53;;
76107;SDS011;64834;52.516;10.528;2023-10-31T01:44:30;4.35;;;2.20;;
76107;SDS011;64834;52.516;10.528;2023-10-31T01:46:55;5.55;;;2.90;;
76107;SDS011;64834;52.516;10.528;2023-10-31T01:49:21;6.60;;;2.70;;
76107;SDS011;64834;52.516;10.528;2023-10-31T01:51:46;6.55;;;2.28;;
76107;SDS011;64834;52.516;10.528;2023-10-31T01:54:13;4.40;;;2.47;;
76107;SDS011;64834;52.516;10.528;2023-10-31T01:56:39;4.35;;;2.45;;
76107;SDS011;64834;52.516;10.528;2023-10-31T01:59:05;3.50;;;2.10;;
76107;SDS011;64834;52.516;10.528;2023-10-31T02:01:31;5.78;;;2.42;;
76107;SDS011;64834;52.516;10.528;2023-10-31T02:03:57;4.65;;;2.10;;
76107;SDS011;64834;52.516;10.528;2023-10-31T02:06:23;5.03;;;2.03;;
76107;SDS011;64834;52.516;10.528;2023-10-31T02:08:49;4.47;;;2.22;;
76107;SDS011;64834;52.516;10.528;2023-10-31T02:11:14;3.63;;;2.45;;
76107;SDS011;64834;52.516;10.528;2023-10-31T02:13:40;6.90;;;2.45;;
76107;SDS011;64834;52.516;10.528;2023-10-31T02:16:05;4.68;;;2.30;;
76107;SDS011;64834;52.516;10.528;2023-10-31T02:18:31;4.90;;;2.20;;
76107;SDS011;64834;52.516;10.528;2023-10-31T02:20:57;6.05;;;2.45;;
76107;SDS011;64834;52.516;10.528;2023-10-31T02:23:22;4.75;;;2.63;;
76107;SDS011;64834;52.516;10.528;2023-10-31T02:25:47;8.07;;;2.47;;
76107;SDS011;64834;52.516;10.528;2023-10-31T02:28:13;5.20;;;2.25;;
76107;SDS011;64834;52.516;10.528;2023-10-31T02:30:38;4.82;;;2.60;;
76107;SDS011;64834;52.516;10.528;2023-10-31T02:33:04;4.35;;;2.40;;
76107;SDS011;64834;52.516;10.528;2023-10-31T02:35:29;6.15;;;2.85;;
76107;SDS011;64834;52.516;10.528;2023-10-31T02:37:54;7.82;;;3.03;;
76107;SDS011;64834;52.516;10.528;2023-10-31T02:40:20;6.75;;;3.30;;
76107;SDS011;64834;52.516;10.528;2023-10-31T02:42:45;5.82;;;2.85;;
76107;SDS011;64834;52.516;10.528;2023-10-31T02:45:11;5.75;;;3.30;;
76107;SDS011;64834;52.516;10.528;2023-10-31T02:47:36;5.68;;;3.47;;
76107;SDS011;64834;52.516;10.528;2023-10-31T02:50:01;5.13;;;3.20;;
76107;SDS011;64834;52.516;10.528;2023-10-31T02:52:27;6.07;;;3.20;;
76107;SDS011;64834;52.516;10.528;2023-10-31T02:54:52;7.82;;;3.72;;
76107;SDS011;64834;52.516;10.528;2023-10-31T02:57:17;5.85;;;3.58;;
76107;SDS011;64834;52.516;10.528;2023-10-31T02:59:43;8.05;;;3.47;;
76107;SDS011;64834;52.516;10.528;2023-10-31T03:02:08;4.90;;;3.22;;
76107;SDS011;64834;52.516;10.528;2023-10-31T03:04:33;6.43;;;3.55;;
76107;SDS011;64834;52.516;10.528;2023-10-31T03:06:59;6.70;;;3.75;;
76107;SDS011;64834;52.516;10.528;2023-10-31T03:09:24;5.88;;;3.47;;
76107;SDS011;64834;52.516;10.528;2023-10-31T03:11:49;7.40;;;4.03;;
76107;SDS011;64834;52.516;10.528;2023-10-31T03:14:15;5.85;;;3.45;;
76107;SDS011;64834;52.516;10.528;2023-10-31T03:16:40;9.55;;;4.30;;
76107;SDS011;64834;52.516;10.528;2023-10-31T03:19:05;6.20;;;3.78;;
76107;SDS011;64834;52.516;10.528;2023-10-31T03:21:31;6.57;;;4.38;;
76107;SDS011;64834;52.516;10.528;2023-10-31T03:23:56;9.00;;;4.95;;
76107;SDS011;64834;52.516;10.528;2023-10-31T03:26:22;7.68;;;4.13;;
76107;SDS011;64834;52.516;10.528;2023-10-31T03:28:48;8.23;;;4.18;;
76107;SDS011;64834;52.516;10.528;2023-10-31T03:31:14;5.65;;;3.67;;
76107;SDS011;64834;52.516;10.528;2023-10-31T03:33:39;5.72;;;3.28;;
76107;SDS011;64834;52.516;10.528;2023-10-31T03:36:05;5.82;;;3.38;;
76107;SDS011;64834;52.516;10.528;2023-10-31T03:38:31;7.07;;;4.50;;
76107;SDS011;64834;52.516;10.528;2023-10-31T03:40:57;7.82;;;4.10;;
76107;SDS011;64834;52.516;10.528;2023-10-31T03:43:22;8.65;;;4.10;;
76107;SDS011;64834;52.516;10.528;2023-10-31T03:45:48;6.97;;;3.50;;
76107;SDS011;64834;52.516;10.528;2023-10-31T03:48:13;6.88;;;3.55;;
76107;SDS011;64834;52.516;10.528;2023-10-31T03:50:39;5.60;;;3.67;;
76107;SDS011;64834;52.516;10.528;2023-10-31T03:53:04;7.28;;;3.67;;
76107;SDS011;64834;52.516;10.528;2023-10-31T03:55:29;7.38;;;4.00;;
76107;SDS011;64834;52.516;10.528;2023-10-31T03:57:55;5.85;;;3.53;;
76107;SDS011;64834;52.516;10.528;2023-10-31T04:00:20;7.57;;;4.40;;
76107;SDS011;64834;52.516;10.528;2023-10-31T04:02:46;9.30;;;4.60;;
76107;SDS011;64834;52.516;10.528;2023-10-31T04:05:11;7.47;;;3.97;;
76107;SDS011;64834;52.516;10.528;2023-10-31T04:07:37;6.65;;;3.83;;
76107;SDS011;64834;52.516;10.528;2023-10-31T04:10:03;8.25;;;4.05;;
76107;SDS011;64834;52.516;10.528;2023-10-31T04:12:28;8.45;;;4.60;;
76107;SDS011;64834;52.516;10.528;2023-10-31T04:14:54;8.35;;;4.75;;
76107;SDS011;64834;52.516;10.528;2023-10-31T04:17:19;6.50;;;4.15;;
76107;SDS011;64834;52.516;10.528;2023-10-31T04:19:44;6.80;;;4.20;;
76107;SDS011;64834;52.516;10.528;2023-10-31T04:22:10;7.85;;;4.43;;
76107;SDS011;64834;52.516;10.528;2023-10-31T04:24:35;7.88;;;4.28;;
76107;SDS011;64834;52.516;10.528;2023-10-31T04:27:00;7.22;;;3.75;;
76107;SDS011;64834;52.516;10.528;2023-10-31T04:29:26;6.38;;;3.40;;
76107;SDS011;64834;52.516;10.528;2023-10-31T04:31:51;5.07;;;2.47;;
76107;SDS011;64834;52.516;10.528;2023-10-31T04:34:16;4.75;;;2.60;;
76107;SDS011;64834;52.516;10.528;2023-10-31T04:36:41;4.28;;;2.40;;
76107;SDS011;64834;52.516;10.528;2023-10-31T04:39:07;3.50;;;2.45;;
76107;SDS011;64834;52.516;10.528;2023-10-31T04:41:32;3.45;;;2.55;;
76107;SDS011;64834;52.516;10.528;2023-10-31T04:43:57;4.68;;;2.80;;
76107;SDS011;64834;52.516;10.528;2023-10-31T04:46:24;3.33;;;2.15;;
76107;SDS011;64834;52.516;10.528;2023-10-31T04:48:51;5.03;;;2.72;;
76107;SDS011;64834;52.516;10.528;2023-10-31T04:51:17;3.67;;;2.35;;
76107;SDS011;64834;52.516;10.528;2023-10-31T04:53:42;3.35;;;2.50;;
76107;SDS011;64834;52.516;10.528;2023-10-31T04:56:14;3.50;;;2.60;;
76107;SDS011;64834;52.516;10.528;2023-10-31T04:58:43;4.57;;;2.50;;
76107;SDS011;64834;52.516;10.528;2023-10-31T05:01:09;3.53;;;2.85;;
76107;SDS011;64834;52.516;10.528;2023-10-31T05:03:36;4.35;;;2.80;;
76107;SDS011;64834;52.516;10.528;2023-10-31T05:06:01;3.45;;;2.45;;
76107;SDS011;64834;52.516;10.528;2023-10-31T05:08:26;4.03;;;3.17;;
76107;SDS011;64834;52.516;10.528;2023-10-31T05:10:52;4.13;;;3.03;;
76107;SDS011;64834;52.516;10.528;2023-10-31T05:13:17;3.00;;;2.70;;
76107;SDS011;64834;52.516;10.528;2023-10-31T05:15:42;3.50;;;2.88;;
76107;SDS011;64834;52.516;10.528;2023-10-31T05:18:08;3.67;;;2.75;;
76107;SDS011;64834;52.516;10.528;2023-10-31T05:20:34;4.10;;;3.17;;
76107;SDS011;64834;52.516;10.528;2023-10-31T05:22:59;3.53;;;2.80;;
76107;SDS011;64834;52.516;10.528;2023-10-31T05:25:24;3.60;;;2.63;;
76107;SDS011;64834;52.516;10.528;2023-10-31T05:27:50;4.38;;;2.80;;
76107;SDS011;64834;52.516;10.528;2023-10-31T05:30:15;3.20;;;2.33;;
76107;SDS011;64834;52.516;10.528;2023-10-31T05:32:40;2.97;;;2.20;;
76107;SDS011;64834;52.516;10.528;2023-10-31T05:35:06;2.17;;;1.80;;
76107;SDS011;64834;52.516;10.528;2023-10-31T05:37:31;2.15;;;1.63;;
76107;SDS011;64834;52.516;10.528;2023-10-31T05:39:57;3.65;;;1.63;;
76107;SDS011;64834;52.516;10.528;2023-10-31T05:42:22;1.70;;;1.15;;
76107;SDS011;64834;52.516;10.528;2023-10-31T05:44:48;1.73;;;1.23;;
76107;SDS011;64834;52.516;10.528;2023-10-31T05:47:13;1.30;;;0.73;;
76107;SDS011;64834;52.516;10.528;2023-10-31T05:49:39;0.85;;;0.50;;
76107;SDS011;64834;52.516;10.528;2023-10-31T05:52:04;0.90;;;0.57;;
76107;SDS011;64834;52.516;10.528;2023-10-31T05:54:30;0.77;;;0.38;;
76107;SDS011;64834;52.516;10.528;2023-10-31T05:56:55;0.80;;;0.30;;
76107;SDS011;64834;52.516;10.528;2023-10-31T05:59:20;0.80;;;0.30;;
76107;SDS011;64834;52.516;10.528;2023-10-31T06:01:46;0.88;;;0.50;;
76107;SDS011;64834;52.516;10.528;2023-10-31T06:04:11;0.30;;;0.10;;
76107;SDS011;64834;52.516;10.528;2023-10-31T06:06:37;0.68;;;0.20;;
76107;SDS011;64834;52.516;10.528;2023-10-31T06:09:04;0.00;;;0.00;;
76107;SDS011;64834;52.516;10.528;2023-10-31T06:11:29;0.35;;;0.10;;
76107;SDS011;64834;52.516;10.528;2023-10-31T06:13:55;0.30;;;0.13;;
76107;SDS011;64834;52.516;10.528;2023-10-31T06:16:20;0.00;;;0.00;;
76107;SDS011;64834;52.516;10.528;2023-10-31T06:18:46;0.30;;;0.10;;
76107;SDS011;64834;52.516;10.528;2023-10-31T06:21:11;0.57;;;0.10;;
76107;SDS011;64834;52.516;10.528;2023-10-31T06:23:37;0.95;;;0.03;;
76107;SDS011;64834;52.516;10.528;2023-10-31T06:26:03;1.27;;;0.10;;
76107;SDS011;64834;52.516;10.528;2023-10-31T06:28:29;0.35;;;0.10;;
76107;SDS011;64834;52.516;10.528;2023-10-31T06:30:54;0.20;;;0.00;;
76107;SDS011;64834;52.516;10.528;2023-10-31T06:33:19;0.95;;;0.10;;
76107;SDS011;64834;52.516;10.528;2023-10-31T06:35:45;0.93;;;0.10;;
76107;SDS011;64834;52.516;10.528;2023-10-31T06:38:10;1.92;;;0.03;;
76107;SDS011;64834;52.516;10.528;2023-10-31T06:40:35;0.40;;;0.10;;
76107;SDS011;64834;52.516;10.528;2023-10-31T06:43:01;0.90;;;0.00;;
76107;SDS011;64834;52.516;10.528;2023-10-31T06:45:27;0.30;;;0.00;;
76107;SDS011;64834;52.516;10.528;2023-10-31T06:47:52;0.50;;;0.10;;
76107;SDS011;64834;52.516;10.528;2023-10-31T06:50:18;1.55;;;0.10;;
76107;SDS011;64834;52.516;10.528;2023-10-31T06:52:43;0.70;;;0.10;;
76107;SDS011;64834;52.516;10.528;2023-10-31T06:55:09;1.00;;;0.17;;
76107;SDS011;64834;52.516;10.528;2023-10-31T06:57:35;0.35;;;0.10;;
76107;SDS011;64834;52.516;10.528;2023-10-31T07:00:00;0.82;;;0.10;;
76107;SDS011;64834;52.516;10.528;2023-10-31T07:02:26;1.33;;;0.10;;
76107;SDS011;64834;52.516;10.528;2023-10-31T07:04:51;1.48;;;0.20;;
76107;SDS011;64834;52.516;10.528;2023-10-31T07:07:16;0.77;;;0.30;;
76107;SDS011;64834;52.516;10.528;2023-10-31T07:09:42;1.15;;;0.30;;
76107;SDS011;64834;52.516;10.528;2023-10-31T07:12:07;2.05;;;0.40;;
76107;SDS011;64834;52.516;10.528;2023-10-31T07:14:32;0.65;;;0.40;;
76107;SDS011;64834;52.516;10.528;2023-10-31T07:16:58;0.52;;;0.15;;
76107;SDS011;64834;52.516;10.528;2023-10-31T07:19:23;1.75;;;0.20;;
76107;SDS011;64834;52.516;10.528;2023-10-31T07:21:48;0.88;;;0.30;;
76107;SDS011;64834;52.516;10.528;2023-10-31T07:24:14;1.15;;;0.22;;
76107;SDS011;64834;52.516;10.528;2023-10-31T07:26:39;0.80;;;0.30;;
76107;SDS011;64834;52.516;10.528;2023-10-31T07:29:04;2.85;;;0.43;;
76107;SDS011;64834;52.516;10.528;2023-10-31T07:31:30;1.10;;;0.40;;
76107;SDS011;64834;52.516;10.528;2023-10-31T07:33:55;1.45;;;0.45;;
76107;SDS011;64834;52.516;10.528;2023-10-31T07:36:21;1.83;;;0.50;;
76107;SDS011;64834;52.516;10.528;2023-10-31T07:38:47;1.98;;;0.50;;
76107;SDS011;64834;52.516;10.528;2023-10-31T07:41:12;1.08;;;0.43;;
76107;SDS011;64834;52.516;10.528;2023-10-31T07:43:38;4.65;;;0.60;;
76107;SDS011;64834;52.516;10.528;2023-10-31T07:46:03;1.40;;;0.57;;
76107;SDS011;64834;52.516;10.528;2023-10-31T07:48:29;0.82;;;0.50;;
76107;SDS011;64834;52.516;10.528;2023-10-31T07:50:54;1.08;;;0.40;;
76107;SDS011;64834;52.516;10.528;2023-10-31T07:53:19;1.67;;;0.52;;
76107;SDS011;64834;52.516;10.528;2023-10-31T07:55:45;1.38;;;0.43;;
76107;SDS011;64834;52.516;10.528;2023-10-31T07:58:10;2.95;;;0.93;;
76107;SDS011;64834;52.516;10.528;2023-10-31T08:00:35;1.88;;;0.60;;
76107;SDS011;64834;52.516;10.528;2023-10-31T08:03:01;3.75;;;0.90;;
76107;SDS011;64834;52.516;10.528;2023-10-31T08:05:27;2.22;;;1.10;;
76107;SDS011;64834;52.516;10.528;2023-10-31T08:07:52;5.03;;;0.93;;
76107;SDS011;64834;52.516;10.528;2023-10-31T08:10:18;3.25;;;1.02;;
76107;SDS011;64834;52.516;10.528;2023-10-31T08:12:43;1.95;;;0.90;;
76107;SDS011;64834;52.516;10.528;2023-10-31T08:15:09;1.35;;;0.47;;
76107;SDS011;64834;52.516;10.528;2023-10-31T08:17:34;1.52;;;0.80;;
76107;SDS011;64834;52.516;10.528;2023-10-31T08:20:00;1.98;;;0.43;;
76107;SDS011;64834;52.516;10.528;2023-10-31T08:22:25;0.82;;;0.55;;
76107;SDS011;64834;52.516;10.528;2023-10-31T08:24:50;1.85;;;0.80;;
76107;SDS011;64834;52.516;10.528;2023-10-31T08:27:16;2.42;;;1.13;;
76107;SDS011;64834;52.516;10.528;2023-10-31T08:29:41;2.20;;;1.02;;
76107;SDS011;64834;52.516;10.528;2023-10-31T08:32:06;3.88;;;1.00;;
76107;SDS011;64834;52.516;10.528;2023-10-31T08:34:32;2.40;;;1.25;;
76107;SDS011;64834;52.516;10.528;2023-10-31T08:36:57;1.65;;;0.82;;
76107;SDS011;64834;52.516;10.528;2023-10-31T08:39:24;3.15;;;1.02;;
76107;SDS011;64834;52.516;10.528;2023-10-31T08:41:56;2.97;;;1.20;;
76107;SDS011;64834;52.516;10.528;2023-10-31T08:44:22;3.40;;;1.20;;
76107;SDS011;64834;52.516;10.528;2023-10-31T08:46:47;1.80;;;0.90;;
76107;SDS011;64834;52.516;10.528;2023-10-31T08:49:14;1.65;;;0.88;;
76107;SDS011;64834;52.516;10.528;2023-10-31T08:51:40;3.08;;;0.90;;
76107;SDS011;64834;52.516;10.528;2023-10-31T08:54:06;3.00;;;0.90;;
76107;SDS011;64834;52.516;10.528;2023-10-31T08:56:31;1.88;;;0.90;;
76107;SDS011;64834;52.516;10.528;2023-10-31T08:58:56;1.65;;;0.90;;
76107;SDS011;64834;52.516;10.528;2023-10-31T09:01:22;3.20;;;1.10;;
76107;SDS011;64834;52.516;10.528;2023-10-31T09:03:47;3.17;;;1.20;;
76107;SDS011;64834;52.516;10.528;2023-10-31T09:06:12;2.75;;;1.10;;
76107;SDS011;64834;52.516;10.528;2023-10-31T09:08:38;1.50;;;0.80;;
76107;SDS011;64834;52.516;10.528;2023-10-31T09:11:04;1.90;;;0.63;;
76107;SDS011;64834;52.516;10.528;2023-10-31T09:13:30;0.90;;;0.43;;
76107;SDS011;64834;52.516;10.528;2023-10-31T09:15:59;1.90;;;0.63;;
76107;SDS011;64834;52.516;10.528;2023-10-31T09:18:25;1.17;;;0.68;;
76107;SDS011;64834;52.516;10.528;2023-10-31T09:20:50;2.67;;;0.80;;
76107;SDS011;64834;52.516;10.528;2023-10-31T09:23:16;0.82;;;0.38;;
76107;SDS011;64834;52.516;10.528;2023-10-31T09:25:42;1.23;;;0.70;;
76107;SDS011;64834;52.516;10.528;2023-10-31T09:28:08;0.95;;;0.57;;
76107;SDS011;64834;52.516;10.528;2023-10-31T09:30:33;1.27;;;0.70;;
76107;SDS011;64834;52.516;10.528;2023-10-31T09:32:59;3.08;;;1.13;;
76107;SDS011;64834;52.516;10.528;2023-10-31T09:35:24;2.88;;;0.80;;
76107;SDS011;64834;52.516;10.528;2023-10-31T09:37:50;0.88;;;0.43;;
76107;SDS011;64834;52.516;10.528;2023-10-31T09:40:15;1.25;;;0.65;;
76107;SDS011;64834;52.516;10.528;2023-10-31T09:42:41;2.60;;;0.73;;
76107;SDS011;64834;52.516;10.528;2023-10-31T09:45:07;1.25;;;0.70;;
76107;SDS011;64834;52.516;10.528;2023-10-31T09:47:32;3.80;;;0.68;;
76107;SDS011;64834;52.516;10.528;2023-10-31T09:50:01;1.23;;;0.60;;
76107;SDS011;64834;52.516;10.528;2023-10-31T09:52:26;0.90;;;0.22;;
76107;SDS011;64834;52.516;10.528;2023-10-31T09:54:52;0.50;;;0.30;;
76107;SDS011;64834;52.516;10.528;2023-10-31T09:57:18;1.92;;;0.20;;
76107;SDS011;64834;52.516;10.528;2023-10-31T09:59:43;1.17;;;0.32;;
76107;SDS011;64834;52.516;10.528;2023-10-31T10:02:09;1.50;;;0.43;;
76107;SDS011;64834;52.516;10.528;2023-10-31T10:04:34;0.50;;;0.30;;
76107;SDS011;64834;52.516;10.528;2023-10-31T10:07:02;0.70;;;0.30;;
76107;SDS011;64834;52.516;10.528;2023-10-31T10:09:28;0.77;;;0.20;;
76107;SDS011;64834;52.516;10.528;2023-10-31T10:11:54;0.80;;;0.22;;
76107;SDS011;64834;52.516;10.528;2023-10-31T10:14:22;1.05;;;0.30;;
76107;SDS011;64834;52.516;10.528;2023-10-31T10:19:14;1.10;;;0.30;;
76107;SDS011;64834;52.516;10.528;2023-10-31T10:21:55;4.65;;;0.73;;
76107;SDS011;64834;52.516;10.528;2023-10-31T10:24:22;1.52;;;0.40;;
76107;SDS011;64834;52.516;10.528;2023-10-31T10:26:48;1.83;;;0.70;;
76107;SDS011;64834;52.516;10.528;2023-10-31T10:29:14;1.90;;;0.50;;
76107;SDS011;64834;52.516;10.528;2023-10-31T10:31:40;2.03;;;0.38;;
76107;SDS011;64834;52.516;10.528;2023-10-31T10:34:07;1.33;;;0.60;;
76107;SDS011;64834;52.516;10.528;2023-10-31T10:36:33;0.47;;;0.20;;
76107;SDS011;64834;52.516;10.528;2023-10-31T10:38:59;2.08;;;0.77;;
76107;SDS011;64834;52.516;10.528;2023-10-31T10:41:26;1.40;;;0.80;;
76107;SDS011;64834;52.516;10.528;2023-10-31T10:43:55;1.42;;;0.63;;
76107;SDS011;64834;52.516;10.528;2023-10-31T10:46:25;1.33;;;0.70;;
76107;SDS011;64834;52.516;10.528;2023-10-31T10:48:53;2.25;;;0.63;;
76107;SDS011;64834;52.516;10.528;2023-10-31T10:51:29;2.03;;;0.80;;
76107;SDS011;64834;52.516;10.528;2023-10-31T10:54:05;1.50;;;0.60;;
76107;SDS011;64834;52.516;10.528;2023-10-31T10:56:39;1.08;;;0.50;;
76107;SDS011;64834;52.516;10.528;2023-10-31T10:59:15;0.75;;;0.30;;
76107;SDS011;64834;52.516;10.528;2023-10-31T11:01:45;0.82;;;0.20;;
76107;SDS011;64834;52.516;10.528;2023-10-31T11:06:38;0.57;;;0.28;;
76107;SDS011;64834;52.516;10.528;2023-10-31T11:09:04;1.00;;;0.22;;
76107;SDS011;64834;52.516;10.528;2023-10-31T11:11:31;0.40;;;0.13;;
76107;SDS011;64834;52.516;10.528;2023-10-31T11:13:57;0.50;;;0.20;;
76107;SDS011;64834;52.516;10.528;2023-10-31T11:16:26;0.45;;;0.10;;
76107;SDS011;64834;52.516;10.528;2023-10-31T11:18:58;1.20;;;0.22;;
76107;SDS011;64834;52.516;10.528;2023-10-31T11:21:24;1.15;;;0.25;;
76107;SDS011;64834;52.516;10.528;2023-10-31T11:23:59;0.57;;;0.20;;
76107;SDS011;64834;52.516;10.528;2023-10-31T11:26:26;0.40;;;0.15;;
76107;SDS011;64834;52.516;10.528;2023-10-31T11:28:52;3.08;;;0.32;;
76107;SDS011;64834;52.516;10.528;2023-10-31T11:31:27;0.43;;;0.20;;
76107;SDS011;64834;52.516;10.528;2023-10-31T11:33:52;0.77;;;0.43;;
76107;SDS011;64834;52.516;10.528;2023-10-31T11:36:18;1.02;;;0.30;;
76107;SDS011;64834;52.516;10.528;2023-10-31T11:38:44;0.43;;;0.20;;
76107;SDS011;64834;52.516;10.528;2023-10-31T11:41:09;0.75;;;0.32;;
76107;SDS011;64834;52.516;10.528;2023-10-31T11:43:56;0.52;;;0.20;;
76107;SDS011;64834;52.516;10.528;2023-10-31T11:46:24;1.20;;;0.40;;
76107;SDS011;64834;52.516;10.528;2023-10-31T11:48:53;1.08;;;0.60;;
76107;SDS011;64834;52.516;10.528;2023-10-31T11:51:20;1.45;;;0.40;;
76107;SDS011;64834;52.516;10.528;2023-10-31T11:53:46;1.65;;;0.70;;
76107;SDS011;64834;52.516;10.528;2023-10-31T11:56:14;1.60;;;0.70;;
76107;SDS011;64834;52.516;10.528;2023-10-31T11:58:40;1.48;;;0.75;;
76107;SDS011;64834;52.516;10.528;2023-10-31T12:01:07;1.20;;;0.52;;
76107;SDS011;64834;52.516;10.528;2023-10-31T12:03:38;1.30;;;0.45;;
76107;SDS011;64834;52.516;10.528;2023-10-31T12:06:04;1.10;;;0.50;;
76107;SDS011;64834;52.516;10.528;2023-10-31T12:08:31;0.85;;;0.50;;
76107;SDS011;64834;52.516;10.528;2023-10-31T12:13:29;2.35;;;0.70;;
76107;SDS011;64834;52.516;10.528;2023-10-31T12:15:54;1.48;;;0.45;;
76107;SDS011;64834;52.516;10.528;2023-10-31T12:18:20;0.90;;;0.45;;
76107;SDS011;64834;52.516;10.528;2023-10-31T12:20:50;1.73;;;0.80;;
76107;SDS011;64834;52.516;10.528;2023-10-31T12:23:17;2.15;;;0.80;;
76107;SDS011;64834;52.516;10.528;2023-10-31T12:25:47;1.17;;;0.60;;
76107;SDS011;64834;52.516;10.528;2023-10-31T12:28:16;0.90;;;0.50;;
76107;SDS011;64834;52.516;10.528;2023-10-31T12:30:45;1.20;;;0.65;;
76107;SDS011;64834;52.516;10.528;2023-10-31T12:33:15;1.45;;;0.68;;
76107;SDS011;64834;52.516;10.528;2023-10-31T12:35:42;2.55;;;0.68;;
76107;SDS011;64834;52.516;10.528;2023-10-31T12:38:11;1.58;;;0.50;;
76107;SDS011;64834;52.516;10.528;2023-10-31T12:40:38;2.42;;;0.93;;
76107;SDS011;64834;52.516;10.528;2023-10-31T12:43:05;1.35;;;0.80;;
76107;SDS011;64834;52.516;10.528;2023-10-31T12:45:31;1.90;;;0.75;;
76107;SDS011;64834;52.516;10.528;2023-10-31T12:48:09;0.85;;;0.47;;
76107;SDS011;64834;52.516;10.528;2023-10-31T12:50:36;2.40;;;0.70;;
76107;SDS011;64834;52.516;10.528;2023-10-31T12:53:11;0.57;;;0.30;;
76107;SDS011;64834;52.516;10.528;2023-10-31T12:55:47;1.10;;;0.45;;
76107;SDS011;64834;52.516;10.528;2023-10-31T12:58:19;1.40;;;0.60;;
76107;SDS011;64834;52.516;10.528;2023-10-31T13:00:45;1.10;;;0.47;;
76107;SDS011;64834;52.516;10.528;2023-10-31T13:03:11;1.65;;;0.80;;
76107;SDS011;64834;52.516;10.528;2023-10-31T13:05:37;1.10;;;0.50;;
76107;SDS011;64834;52.516;10.528;2023-10-31T13:08:08;1.60;;;0.43;;
76107;SDS011;64834;52.516;10.528;2023-10-31T13:10:38;0.90;;;0.60;;
76107;SDS011;64834;52.516;10.528;2023-10-31T13:13:04;1.95;;;0.68;;
76107;SDS011;64834;52.516;10.528;2023-10-31T13:15:29;1.05;;;0.52;;
76107;SDS011;64834;52.516;10.528;2023-10-31T13:17:55;1.60;;;0.40;;
76107;SDS011;64834;52.516;10.528;2023-10-31T13:20:21;1.52;;;0.70;;
76107;SDS011;64834;52.516;10.528;2023-10-31T13:22:46;1.00;;;0.47;;
76107;SDS011;64834;52.516;10.528;2023-10-31T13:25:13;1.02;;;0.63;;
76107;SDS011;64834;52.516;10.528;2023-10-31T13:27:40;1.40;;;0.55;;
76107;SDS011;64834;52.516;10.528;2023-10-31T13:30:08;2.00;;;0.77;;
76107;SDS011;64834;52.516;10.528;2023-10-31T13:32:38;1.40;;;0.50;;
76107;SDS011;64834;52.516;10.528;2023-10-31T13:35:07;1.50;;;0.70;;
76107;SDS011;64834;52.516;10.528;2023-10-31T13:37:35;11.85;;;0.82;;
76107;SDS011;64834;52.516;10.528;2023-10-31T13:40:05;0.80;;;0.40;;
76107;SDS011;64834;52.516;10.528;2023-10-31T13:42:33;2.05;;;0.80;;
76107;SDS011;64834;52.516;10.528;2023-10-31T13:44:59;1.00;;;0.50;;
76107;SDS011;64834;52.516;10.528;2023-10-31T13:47:24;1.23;;;0.60;;
76107;SDS011;64834;52.516;10.528;2023-10-31T13:49:50;1.10;;;0.50;;
76107;SDS011;64834;52.516;10.528;2023-10-31T13:52:15;3.63;;;1.00;;
76107;SDS011;64834;52.516;10.528;2023-10-31T13:54:40;1.27;;;0.50;;
76107;SDS011;64834;52.516;10.528;2023-10-31T13:57:06;1.10;;;0.40;;
76107;SDS011;64834;52.516;10.528;2023-10-31T13:59:31;1.50;;;0.55;;
76107;SDS011;64834;52.516;10.528;2023-10-31T14:01:56;2.50;;;0.70;;
76107;SDS011;64834;52.516;10.528;2023-10-31T14:04:22;1.15;;;0.60;;
76107;SDS011;64834;52.516;10.528;2023-10-31T14:06:47;1.45;;;0.60;;
76107;SDS011;64834;52.516;10.528;2023-10-31T14:09:13;1.38;;;0.80;;
76107;SDS011;64834;52.516;10.528;2023-10-31T14:11:39;1.00;;;0.50;;
76107;SDS011;64834;52.516;10.528;2023-10-31T14:14:05;1.20;;;0.75;;
76107;SDS011;64834;52.516;10.528;2023-10-31T14:16:41;2.83;;;0.73;;
76107;SDS011;64834;52.516;10.528;2023-10-31T14:19:06;1.25;;;0.52;;
76107;SDS011;64834;52.516;10.528;2023-10-31T14:21:32;1.80;;;0.70;;
76107;SDS011;64834;52.516;10.528;2023-10-31T14:23:59;1.52;;;0.73;;
76107;SDS011;64834;52.516;10.528;2023-10-31T14:26:26;2.03;;;0.60;;
76107;SDS011;64834;52.516;10.528;2023-10-31T14:28:52;1.20;;;0.70;;
76107;SDS011;64834;52.516;10.528;2023-10-31T14:31:17;1.42;;;0.63;;
76107;SDS011;64834;52.516;10.528;2023-10-31T14:33:43;1.95;;;0.50;;